sensor_id;sensor_type;location;lat;lon;timestamp;pressure;altitude;pressure_sealevel;temperature;humidity
1401;BME280;46518;48.842;8.926;2022-07-29T00:01:41;96929.19;;;20.30;78.10
1401;BME280;46518;48.842;8.926;2022-07-29T00:04:10;96925.72;;;20.20;78.42
1401;BME280;46518;48.842;8.926;2022-07-29T00:06:39;96923.19;;;20.24;78.78
1401;BME280;46518;48.842;8.926;2022-07-29T00:09:08;96919.91;;;20.10;79.45
1401;BME280;46518;48.842;8.926;2022-07-29T00:11:36;96904.94;;;20.00;79.58
1401;BME280;46518;48.842;8.926;2022-07-29T00:14:04;96915.78;;;20.03;80.17
1401;BME280;46518;48.842;8.926;2022-07-29T00:16:34;96907.75;;;19.95;80.30
1401;BME280;46518;48.842;8.926;2022-07-29T00:19:03;96906.34;;;19.97;80.20
1401;BME280;46518;48.842;8.926;2022-07-29T00:21:33;96910.09;;;19.96;80.52
1401;BME280;46518;48.842;8.926;2022-07-29T00:24:02;96910.59;;;19.98;80.53
1401;BME280;46518;48.842;8.926;2022-07-29T00:26:30;96914.19;;;19.85;80.64
1401;BME280;46518;48.842;8.926;2022-07-29T00:28:59;96913.25;;;19.90;80.85
1401;BME280;46518;48.842;8.926;2022-07-29T00:31:50;96915.59;;;19.82;81.50
1401;BME280;46518;48.842;8.926;2022-07-29T00:34:18;96915.09;;;19.80;81.60
1401;BME280;46518;48.842;8.926;2022-07-29T00:37:04;96913.06;;;19.77;81.45
1401;BME280;46518;48.842;8.926;2022-07-29T00:39:33;96912.28;;;19.77;81.80
1401;BME280;46518;48.842;8.926;2022-07-29T00:42:03;96907.03;;;19.72;82.18
1401;BME280;46518;48.842;8.926;2022-07-29T00:44:36;96912.09;;;19.73;82.37
1401;BME280;46518;48.842;8.926;2022-07-29T00:47:06;96904.81;;;19.65;82.77
1401;BME280;46518;48.842;8.926;2022-07-29T00:49:35;96891.97;;;19.67;82.70
1401;BME280;46518;48.842;8.926;2022-07-29T00:52:04;96893.81;;;19.67;82.67
1401;BME280;46518;48.842;8.926;2022-07-29T00:54:34;96885.50;;;19.59;83.05
1401;BME280;46518;48.842;8.926;2022-07-29T00:57:11;96887.84;;;19.61;83.42
1401;BME280;46518;48.842;8.926;2022-07-29T00:59:40;96882.19;;;19.63;83.10
1401;BME280;46518;48.842;8.926;2022-07-29T01:02:10;96877.78;;;19.58;83.60
1401;BME280;46518;48.842;8.926;2022-07-29T01:04:39;96883.97;;;19.67;83.57
1401;BME280;46518;48.842;8.926;2022-07-29T01:07:07;96877.16;;;19.61;83.45
1401;BME280;46518;48.842;8.926;2022-07-29T01:09:36;96882.50;;;19.61;83.64
1401;BME280;46518;48.842;8.926;2022-07-29T01:12:15;96873.69;;;19.60;83.63
1401;BME280;46518;48.842;8.926;2022-07-29T01:14:45;96878.75;;;19.62;83.67
1401;BME280;46518;48.842;8.926;2022-07-29T01:17:20;96875.97;;;19.67;83.64
1401;BME280;46518;48.842;8.926;2022-07-29T01:19:56;96875.13;;;19.67;83.46
1401;BME280;46518;48.842;8.926;2022-07-29T01:22:31;96873.31;;;19.76;83.17
1401;BME280;46518;48.842;8.926;2022-07-29T01:25:26;96873.78;;;19.78;82.77
1401;BME280;46518;48.842;8.926;2022-07-29T01:28:11;96873.16;;;19.81;82.33
1401;BME280;46518;48.842;8.926;2022-07-29T01:30:51;96876.63;;;19.90;81.92
1401;BME280;46518;48.842;8.926;2022-07-29T01:33:24;96877.28;;;19.87;81.72
1401;BME280;46518;48.842;8.926;2022-07-29T01:36:13;96873.34;;;19.85;81.35
1401;BME280;46518;48.842;8.926;2022-07-29T01:38:44;96875.69;;;19.86;81.40
1401;BME280;46518;48.842;8.926;2022-07-29T01:41:16;96869.56;;;19.86;81.51
1401;BME280;46518;48.842;8.926;2022-07-29T01:43:50;96870.81;;;19.88;80.94
1401;BME280;46518;48.842;8.926;2022-07-29T01:46:24;96862.00;;;19.79;80.78
1401;BME280;46518;48.842;8.926;2022-07-29T01:48:56;96864.50;;;19.75;81.13
1401;BME280;46518;48.842;8.926;2022-07-29T01:51:30;96869.56;;;19.77;80.92
1401;BME280;46518;48.842;8.926;2022-07-29T01:54:03;96865.47;;;19.79;80.98
1401;BME280;46518;48.842;8.926;2022-07-29T01:56:33;96865.91;;;19.73;81.04
1401;BME280;46518;48.842;8.926;2022-07-29T01:59:04;96867.34;;;19.79;80.96
1401;BME280;46518;48.842;8.926;2022-07-29T02:01:39;96870.47;;;19.81;80.83
1401;BME280;46518;48.842;8.926;2022-07-29T02:04:10;96863.25;;;19.81;80.53
1401;BME280;46518;48.842;8.926;2022-07-29T02:07:02;96865.16;;;19.81;80.52
1401;BME280;46518;48.842;8.926;2022-07-29T02:09:36;96839.69;;;19.75;79.84
1401;BME280;46518;48.842;8.926;2022-07-29T02:12:06;96859.22;;;19.93;79.96
1401;BME280;46518;48.842;8.926;2022-07-29T02:14:39;96857.94;;;19.99;78.90
1401;BME280;46518;48.842;8.926;2022-07-29T02:17:10;96866.44;;;20.01;78.51
1401;BME280;46518;48.842;8.926;2022-07-29T02:19:40;96863.94;;;20.04;78.20
1401;BME280;46518;48.842;8.926;2022-07-29T02:22:11;96869.09;;;20.01;77.69
1401;BME280;46518;48.842;8.926;2022-07-29T02:24:41;96867.69;;;20.03;77.56
1401;BME280;46518;48.842;8.926;2022-07-29T02:27:10;96866.91;;;20.03;77.57
1401;BME280;46518;48.842;8.926;2022-07-29T02:29:39;96863.00;;;20.00;77.60
1401;BME280;46518;48.842;8.926;2022-07-29T02:32:10;96871.47;;;20.02;77.97
1401;BME280;46518;48.842;8.926;2022-07-29T02:34:41;96869.09;;;20.01;78.39
1401;BME280;46518;48.842;8.926;2022-07-29T02:37:10;96870.66;;;19.93;78.80
1401;BME280;46518;48.842;8.926;2022-07-29T02:39:42;96867.38;;;19.96;79.28
1401;BME280;46518;48.842;8.926;2022-07-29T02:42:13;96862.84;;;20.06;78.96
1401;BME280;46518;48.842;8.926;2022-07-29T02:44:43;96862.97;;;20.09;79.35
1401;BME280;46518;48.842;8.926;2022-07-29T02:47:17;96860.00;;;20.02;79.50
1401;BME280;46518;48.842;8.926;2022-07-29T02:49:53;96854.97;;;20.00;79.28
1401;BME280;46518;48.842;8.926;2022-07-29T02:52:26;96861.09;;;20.01;79.49
1401;BME280;46518;48.842;8.926;2022-07-29T02:54:57;96864.72;;;20.05;79.27
1401;BME280;46518;48.842;8.926;2022-07-29T02:57:31;96857.78;;;20.04;78.93
1401;BME280;46518;48.842;8.926;2022-07-29T03:00:04;96863.78;;;20.01;78.69
1401;BME280;46518;48.842;8.926;2022-07-29T03:02:36;96865.19;;;19.98;78.82
1401;BME280;46518;48.842;8.926;2022-07-29T03:05:08;96862.53;;;20.07;78.46
1401;BME280;46518;48.842;8.926;2022-07-29T03:07:38;96845.53;;;19.86;78.04
1401;BME280;46518;48.842;8.926;2022-07-29T03:10:08;96838.28;;;19.77;78.24
1401;BME280;46518;48.842;8.926;2022-07-29T03:12:40;96867.66;;;19.86;78.28
1401;BME280;46518;48.842;8.926;2022-07-29T03:15:09;96868.75;;;19.76;78.43
1401;BME280;46518;48.842;8.926;2022-07-29T03:17:40;96873.16;;;19.81;78.54
1401;BME280;46518;48.842;8.926;2022-07-29T03:20:37;96880.69;;;19.79;78.19
1401;BME280;46518;48.842;8.926;2022-07-29T03:23:05;96882.72;;;19.73;78.31
1401;BME280;46518;48.842;8.926;2022-07-29T03:25:34;96881.94;;;19.81;77.68
1401;BME280;46518;48.842;8.926;2022-07-29T03:28:02;96883.69;;;19.86;77.41
1401;BME280;46518;48.842;8.926;2022-07-29T03:30:31;96885.72;;;19.89;77.17
1401;BME280;46518;48.842;8.926;2022-07-29T03:33:00;96877.28;;;19.87;76.86
1401;BME280;46518;48.842;8.926;2022-07-29T03:35:39;96870.03;;;19.88;76.27
1401;BME280;46518;48.842;8.926;2022-07-29T03:38:08;96852.88;;;19.71;76.30
1401;BME280;46518;48.842;8.926;2022-07-29T03:40:40;96868.44;;;19.78;76.30
1401;BME280;46518;48.842;8.926;2022-07-29T03:43:11;96848.22;;;19.54;76.84
1401;BME280;46518;48.842;8.926;2022-07-29T03:45:42;96869.78;;;19.67;77.38
1401;BME280;46518;48.842;8.926;2022-07-29T03:48:15;96874.63;;;19.56;77.86
1401;BME280;46518;48.842;8.926;2022-07-29T03:50:44;96850.19;;;19.31;78.20
1401;BME280;46518;48.842;8.926;2022-07-29T03:53:13;96876.47;;;19.47;78.67
1401;BME280;46518;48.842;8.926;2022-07-29T03:55:44;96880.41;;;19.49;78.71
1401;BME280;46518;48.842;8.926;2022-07-29T03:58:14;96849.25;;;19.27;78.88
1401;BME280;46518;48.842;8.926;2022-07-29T04:00:43;96869.66;;;19.32;79.18
1401;BME280;46518;48.842;8.926;2022-07-29T04:03:14;96872.50;;;19.35;79.59
1401;BME280;46518;48.842;8.926;2022-07-29T04:05:42;96872.38;;;19.40;79.23
1401;BME280;46518;48.842;8.926;2022-07-29T04:08:10;96871.75;;;19.44;79.32
1401;BME280;46518;48.842;8.926;2022-07-29T04:10:38;96868.59;;;19.42;79.23
1401;BME280;46518;48.842;8.926;2022-07-29T04:13:06;96869.22;;;19.38;79.69
1401;BME280;46518;48.842;8.926;2022-07-29T04:15:34;96871.41;;;19.36;80.10
1401;BME280;46518;48.842;8.926;2022-07-29T04:18:02;96875.25;;;19.22;80.79
1401;BME280;46518;48.842;8.926;2022-07-29T04:20:32;96877.78;;;19.18;81.48
1401;BME280;46518;48.842;8.926;2022-07-29T04:23:00;96882.00;;;19.19;81.51
1401;BME280;46518;48.842;8.926;2022-07-29T04:25:28;96877.50;;;19.28;81.43
1401;BME280;46518;48.842;8.926;2022-07-29T04:27:56;96876.84;;;19.23;81.32
1401;BME280;46518;48.842;8.926;2022-07-29T04:30:31;96870.69;;;19.13;81.89
1401;BME280;46518;48.842;8.926;2022-07-29T04:33:00;96867.63;;;18.98;83.17
1401;BME280;46518;48.842;8.926;2022-07-29T04:35:29;96873.59;;;19.03;83.76
1401;BME280;46518;48.842;8.926;2022-07-29T04:38:06;96873.09;;;18.92;84.63
1401;BME280;46518;48.842;8.926;2022-07-29T04:40:42;96873.53;;;18.94;85.27
1401;BME280;46518;48.842;8.926;2022-07-29T04:43:12;96870.09;;;18.94;85.24
1401;BME280;46518;48.842;8.926;2022-07-29T04:45:41;96870.28;;;18.98;85.51
1401;BME280;46518;48.842;8.926;2022-07-29T04:48:09;96871.44;;;19.05;85.71
1401;BME280;46518;48.842;8.926;2022-07-29T04:50:38;96875.53;;;19.11;85.50
1401;BME280;46518;48.842;8.926;2022-07-29T04:53:07;96880.25;;;19.14;85.36
1401;BME280;46518;48.842;8.926;2022-07-29T04:55:35;96881.88;;;19.24;85.03
1401;BME280;46518;48.842;8.926;2022-07-29T04:58:05;96879.03;;;19.21;85.44
1401;BME280;46518;48.842;8.926;2022-07-29T05:00:34;96873.88;;;19.24;85.54
1401;BME280;46518;48.842;8.926;2022-07-29T05:03:02;96886.00;;;19.30;85.10
1401;BME280;46518;48.842;8.926;2022-07-29T05:05:31;96883.06;;;19.40;84.96
1401;BME280;46518;48.842;8.926;2022-07-29T05:07:59;96884.81;;;19.54;84.34
1401;BME280;46518;48.842;8.926;2022-07-29T05:10:29;96883.75;;;19.55;83.86
1401;BME280;46518;48.842;8.926;2022-07-29T05:12:57;96885.69;;;19.72;83.25
1401;BME280;46518;48.842;8.926;2022-07-29T05:15:25;96888.41;;;19.80;83.10
1401;BME280;46518;48.842;8.926;2022-07-29T05:17:53;96888.59;;;19.93;82.77
1401;BME280;46518;48.842;8.926;2022-07-29T05:20:21;96889.56;;;19.97;82.58
1401;BME280;46518;48.842;8.926;2022-07-29T05:22:53;96890.63;;;19.96;82.39
1401;BME280;46518;48.842;8.926;2022-07-29T05:25:21;96891.88;;;19.90;82.53
1401;BME280;46518;48.842;8.926;2022-07-29T05:28:10;96895.81;;;20.01;82.57
1401;BME280;46518;48.842;8.926;2022-07-29T05:30:38;96897.09;;;20.03;82.92
1401;BME280;46518;48.842;8.926;2022-07-29T05:33:07;96899.59;;;20.00;82.37
1401;BME280;46518;48.842;8.926;2022-07-29T05:35:55;96896.28;;;19.94;82.41
1401;BME280;46518;48.842;8.926;2022-07-29T05:38:26;96893.34;;;20.04;82.45
1401;BME280;46518;48.842;8.926;2022-07-29T05:40:56;96906.38;;;20.15;81.62
1401;BME280;46518;48.842;8.926;2022-07-29T05:43:26;96899.94;;;20.07;81.63
1401;BME280;46518;48.842;8.926;2022-07-29T05:45:55;96913.94;;;20.30;81.11
1401;BME280;46518;48.842;8.926;2022-07-29T05:48:23;96920.38;;;20.20;81.53
1401;BME280;46518;48.842;8.926;2022-07-29T05:50:52;96912.22;;;20.25;81.39
1401;BME280;46518;48.842;8.926;2022-07-29T05:53:20;96918.66;;;20.33;81.64
1401;BME280;46518;48.842;8.926;2022-07-29T05:55:49;96921.03;;;20.43;80.98
1401;BME280;46518;48.842;8.926;2022-07-29T05:58:17;96920.56;;;20.50;80.85
1401;BME280;46518;48.842;8.926;2022-07-29T06:00:47;96919.94;;;20.44;80.80
1401;BME280;46518;48.842;8.926;2022-07-29T06:03:15;96915.88;;;20.64;80.41
1401;BME280;46518;48.842;8.926;2022-07-29T06:05:43;96928.94;;;20.66;80.06
1401;BME280;46518;48.842;8.926;2022-07-29T06:08:11;96928.28;;;20.69;80.30
1401;BME280;46518;48.842;8.926;2022-07-29T06:10:39;96931.13;;;20.73;80.75
1401;BME280;46518;48.842;8.926;2022-07-29T06:13:07;96939.00;;;20.78;80.10
1401;BME280;46518;48.842;8.926;2022-07-29T06:15:35;96944.97;;;20.83;79.75
1401;BME280;46518;48.842;8.926;2022-07-29T06:18:05;96940.88;;;20.86;79.52
1401;BME280;46518;48.842;8.926;2022-07-29T06:20:36;96943.72;;;20.89;79.76
1401;BME280;46518;48.842;8.926;2022-07-29T06:23:08;96939.63;;;20.92;79.48
1401;BME280;46518;48.842;8.926;2022-07-29T06:25:36;96942.13;;;21.06;78.74
1401;BME280;46518;48.842;8.926;2022-07-29T06:28:06;96933.94;;;20.94;79.21
1401;BME280;46518;48.842;8.926;2022-07-29T06:30:34;96954.41;;;20.98;79.29
1401;BME280;46518;48.842;8.926;2022-07-29T06:33:02;96939.91;;;21.08;78.87
1401;BME280;46518;48.842;8.926;2022-07-29T06:35:34;96945.72;;;21.19;78.71
1401;BME280;46518;48.842;8.926;2022-07-29T06:38:15;96944.13;;;21.26;77.78
1401;BME280;46518;48.842;8.926;2022-07-29T06:41:00;96940.19;;;21.24;78.26
1401;BME280;46518;48.842;8.926;2022-07-29T06:43:31;96946.97;;;21.30;77.92
1401;BME280;46518;48.842;8.926;2022-07-29T06:46:02;96951.03;;;21.36;77.87
1401;BME280;46518;48.842;8.926;2022-07-29T06:48:31;96950.72;;;21.46;77.14
1401;BME280;46518;48.842;8.926;2022-07-29T06:51:02;96953.53;;;21.50;74.49
1401;BME280;46518;48.842;8.926;2022-07-29T06:53:31;96954.31;;;21.50;74.28
1401;BME280;46518;48.842;8.926;2022-07-29T06:56:01;96952.88;;;21.62;73.70
1401;BME280;46518;48.842;8.926;2022-07-29T06:58:32;96959.44;;;21.73;72.42
1401;BME280;46518;48.842;8.926;2022-07-29T07:01:01;96954.84;;;21.82;72.23
1401;BME280;46518;48.842;8.926;2022-07-29T07:03:30;96958.44;;;21.86;72.17
1401;BME280;46518;48.842;8.926;2022-07-29T07:05:58;96961.22;;;21.98;72.13
1401;BME280;46518;48.842;8.926;2022-07-29T07:08:28;96962.28;;;22.06;70.17
1401;BME280;46518;48.842;8.926;2022-07-29T07:10:56;96965.16;;;22.31;69.64
1401;BME280;46518;48.842;8.926;2022-07-29T07:13:24;96962.72;;;22.47;69.43
1401;BME280;46518;48.842;8.926;2022-07-29T07:15:53;96959.56;;;22.45;68.99
1401;BME280;46518;48.842;8.926;2022-07-29T07:18:21;96967.94;;;22.43;68.63
1401;BME280;46518;48.842;8.926;2022-07-29T07:20:49;96970.88;;;22.50;67.56
1401;BME280;46518;48.842;8.926;2022-07-29T07:23:20;96973.38;;;22.55;66.65
1401;BME280;46518;48.842;8.926;2022-07-29T07:25:50;96949.13;;;22.52;66.32
1401;BME280;46518;48.842;8.926;2022-07-29T07:28:19;96969.13;;;22.75;66.01
1401;BME280;46518;48.842;8.926;2022-07-29T07:30:50;96965.19;;;22.94;64.96
1401;BME280;46518;48.842;8.926;2022-07-29T07:33:19;96971.00;;;22.96;64.72
1401;BME280;46518;48.842;8.926;2022-07-29T07:35:47;96966.38;;;23.05;64.82
1401;BME280;46518;48.842;8.926;2022-07-29T07:38:15;96973.44;;;23.10;65.16
1401;BME280;46518;48.842;8.926;2022-07-29T07:40:43;96978.00;;;23.30;65.10
1401;BME280;46518;48.842;8.926;2022-07-29T07:43:14;96979.94;;;23.42;65.20
1401;BME280;46518;48.842;8.926;2022-07-29T07:45:42;96979.25;;;23.45;65.02
1401;BME280;46518;48.842;8.926;2022-07-29T07:48:11;96977.13;;;23.51;64.38
1401;BME280;46518;48.842;8.926;2022-07-29T07:50:39;96974.13;;;23.52;61.68
1401;BME280;46518;48.842;8.926;2022-07-29T07:53:07;96980.31;;;23.65;61.35
1401;BME280;46518;48.842;8.926;2022-07-29T07:55:39;96972.69;;;23.55;58.98
1401;BME280;46518;48.842;8.926;2022-07-29T07:58:29;96978.13;;;23.79;57.35
1401;BME280;46518;48.842;8.926;2022-07-29T08:00:57;96985.59;;;23.74;56.58
1401;BME280;46518;48.842;8.926;2022-07-29T08:03:26;96978.44;;;23.78;57.14
1401;BME280;46518;48.842;8.926;2022-07-29T08:05:54;96983.50;;;23.79;58.52
1401;BME280;46518;48.842;8.926;2022-07-29T08:08:22;96982.22;;;23.64;58.11
1401;BME280;46518;48.842;8.926;2022-07-29T08:10:50;96989.28;;;23.69;57.76
1401;BME280;46518;48.842;8.926;2022-07-29T08:13:23;96984.22;;;23.67;58.65
1401;BME280;46518;48.842;8.926;2022-07-29T08:15:53;96979.00;;;23.83;58.62
1401;BME280;46518;48.842;8.926;2022-07-29T08:18:27;96975.53;;;23.95;56.45
1401;BME280;46518;48.842;8.926;2022-07-29T08:20:56;96967.59;;;24.11;52.46
1401;BME280;46518;48.842;8.926;2022-07-29T08:23:24;96979.78;;;24.08;53.44
1401;BME280;46518;48.842;8.926;2022-07-29T08:26:13;96957.97;;;23.98;53.88
1401;BME280;46518;48.842;8.926;2022-07-29T08:28:43;96984.16;;;24.25;53.26
1401;BME280;46518;48.842;8.926;2022-07-29T08:31:14;96982.03;;;24.31;55.57
1401;BME280;46518;48.842;8.926;2022-07-29T08:33:42;96983.25;;;24.33;53.63
1401;BME280;46518;48.842;8.926;2022-07-29T08:36:10;96981.81;;;24.48;52.68
1401;BME280;46518;48.842;8.926;2022-07-29T08:38:39;96980.22;;;24.60;50.73
1401;BME280;46518;48.842;8.926;2022-07-29T08:41:08;96983.03;;;24.51;50.63
1401;BME280;46518;48.842;8.926;2022-07-29T08:43:36;96981.38;;;24.46;52.12
1401;BME280;46518;48.842;8.926;2022-07-29T08:46:05;96981.47;;;24.62;52.48
1401;BME280;46518;48.842;8.926;2022-07-29T08:48:36;96976.97;;;24.66;53.65
1401;BME280;46518;48.842;8.926;2022-07-29T08:51:06;96982.91;;;24.72;53.20
1401;BME280;46518;48.842;8.926;2022-07-29T08:53:36;96987.38;;;24.68;55.15
1401;BME280;46518;48.842;8.926;2022-07-29T08:56:05;96981.28;;;24.83;52.93
1401;BME280;46518;48.842;8.926;2022-07-29T08:58:34;96982.16;;;24.87;53.13
1401;BME280;46518;48.842;8.926;2022-07-29T09:01:04;96980.88;;;25.09;48.65
1401;BME280;46518;48.842;8.926;2022-07-29T09:03:40;96982.84;;;25.12;48.81
1401;BME280;46518;48.842;8.926;2022-07-29T09:06:12;96979.38;;;25.24;48.21
1401;BME280;46518;48.842;8.926;2022-07-29T09:08:41;96974.69;;;25.21;49.22
1401;BME280;46518;48.842;8.926;2022-07-29T09:11:11;96970.25;;;25.29;48.70
1401;BME280;46518;48.842;8.926;2022-07-29T09:13:39;96977.66;;;25.48;46.73
1401;BME280;46518;48.842;8.926;2022-07-29T09:16:07;96987.63;;;25.31;46.37
1401;BME280;46518;48.842;8.926;2022-07-29T09:18:39;96983.16;;;25.23;48.49
1401;BME280;46518;48.842;8.926;2022-07-29T09:21:09;96990.50;;;25.38;46.81
1401;BME280;46518;48.842;8.926;2022-07-29T09:24:05;96977.47;;;25.40;46.49
1401;BME280;46518;48.842;8.926;2022-07-29T09:26:35;96980.53;;;25.39;45.00
1401;BME280;46518;48.842;8.926;2022-07-29T09:29:08;96985.09;;;25.38;43.66
1401;BME280;46518;48.842;8.926;2022-07-29T09:31:40;96978.50;;;25.36;42.93
1401;BME280;46518;48.842;8.926;2022-07-29T09:34:11;96984.94;;;25.31;43.10
1401;BME280;46518;48.842;8.926;2022-07-29T09:36:40;96984.50;;;25.29;43.44
1401;BME280;46518;48.842;8.926;2022-07-29T09:39:08;96980.59;;;25.43;43.65
1401;BME280;46518;48.842;8.926;2022-07-29T09:41:45;96976.28;;;25.54;42.80
1401;BME280;46518;48.842;8.926;2022-07-29T09:44:14;96971.31;;;25.56;43.79
1401;BME280;46518;48.842;8.926;2022-07-29T09:47:07;96974.81;;;25.72;42.72
1401;BME280;46518;48.842;8.926;2022-07-29T09:49:51;96964.66;;;25.81;42.15
1401;BME280;46518;48.842;8.926;2022-07-29T09:52:19;96968.47;;;25.80;42.94
1401;BME280;46518;48.842;8.926;2022-07-29T09:54:48;96967.78;;;25.83;41.09
1401;BME280;46518;48.842;8.926;2022-07-29T09:57:26;96967.25;;;25.78;41.35
1401;BME280;46518;48.842;8.926;2022-07-29T09:59:58;96962.22;;;25.76;41.18
1401;BME280;46518;48.842;8.926;2022-07-29T10:02:39;96958.47;;;25.81;41.53
1401;BME280;46518;48.842;8.926;2022-07-29T10:05:19;96966.75;;;25.88;41.51
1401;BME280;46518;48.842;8.926;2022-07-29T10:07:49;96962.06;;;26.01;40.89
1401;BME280;46518;48.842;8.926;2022-07-29T10:10:22;96969.44;;;26.04;42.02
1401;BME280;46518;48.842;8.926;2022-07-29T10:12:54;96975.09;;;25.99;41.73
1401;BME280;46518;48.842;8.926;2022-07-29T10:15:25;96959.38;;;26.01;40.78
1401;BME280;46518;48.842;8.926;2022-07-29T10:17:55;96973.88;;;26.12;39.86
1401;BME280;46518;48.842;8.926;2022-07-29T10:20:26;96968.91;;;26.14;39.80
1401;BME280;46518;48.842;8.926;2022-07-29T10:22:55;96960.22;;;26.05;39.77
1401;BME280;46518;48.842;8.926;2022-07-29T10:25:24;96966.72;;;26.20;38.94
1401;BME280;46518;48.842;8.926;2022-07-29T10:27:52;96963.59;;;26.18;37.99
1401;BME280;46518;48.842;8.926;2022-07-29T10:30:23;96970.72;;;26.10;38.57
1401;BME280;46518;48.842;8.926;2022-07-29T10:33:01;96971.38;;;26.03;39.86
1401;BME280;46518;48.842;8.926;2022-07-29T10:36:04;96974.06;;;26.03;39.27
1401;BME280;46518;48.842;8.926;2022-07-29T10:38:45;96968.66;;;25.88;39.82
1401;BME280;46518;48.842;8.926;2022-07-29T10:41:31;96970.56;;;25.71;40.38
1401;BME280;46518;48.842;8.926;2022-07-29T10:44:14;96966.91;;;25.79;39.50
1401;BME280;46518;48.842;8.926;2022-07-29T10:46:45;96968.91;;;25.82;39.38
1401;BME280;46518;48.842;8.926;2022-07-29T10:49:15;96969.09;;;25.90;39.11
1401;BME280;46518;48.842;8.926;2022-07-29T10:51:56;96974.06;;;25.88;39.91
1401;BME280;46518;48.842;8.926;2022-07-29T10:54:47;96966.91;;;25.79;41.55
1401;BME280;46518;48.842;8.926;2022-07-29T10:57:27;96962.13;;;25.73;41.98
1401;BME280;46518;48.842;8.926;2022-07-29T11:00:38;96960.91;;;25.70;42.34
1401;BME280;46518;48.842;8.926;2022-07-29T11:03:45;96951.09;;;25.94;40.95
1401;BME280;46518;48.842;8.926;2022-07-29T11:06:19;96939.16;;;26.11;40.02
1401;BME280;46518;48.842;8.926;2022-07-29T11:09:18;96939.47;;;26.25;39.31
1401;BME280;46518;48.842;8.926;2022-07-29T11:12:01;96943.38;;;26.28;40.39
1401;BME280;46518;48.842;8.926;2022-07-29T11:15:04;96942.13;;;26.41;37.78
1401;BME280;46518;48.842;8.926;2022-07-29T11:18:07;96949.31;;;26.68;37.53
1401;BME280;46518;48.842;8.926;2022-07-29T11:20:50;96943.19;;;26.72;38.08
1401;BME280;46518;48.842;8.926;2022-07-29T11:23:23;96940.69;;;27.02;37.06
1401;BME280;46518;48.842;8.926;2022-07-29T11:26:19;96941.81;;;27.20;37.27
1401;BME280;46518;48.842;8.926;2022-07-29T11:29:08;96933.63;;;27.17;36.26
1401;BME280;46518;48.842;8.926;2022-07-29T11:32:08;96941.66;;;27.32;37.59
1401;BME280;46518;48.842;8.926;2022-07-29T11:34:44;96943.72;;;27.39;35.94
1401;BME280;46518;48.842;8.926;2022-07-29T11:37:17;96943.53;;;27.51;36.72
1401;BME280;46518;48.842;8.926;2022-07-29T11:40:28;96933.44;;;27.48;35.85
1401;BME280;46518;48.842;8.926;2022-07-29T11:43:45;96954.09;;;27.37;36.23
1401;BME280;46518;48.842;8.926;2022-07-29T11:46:43;96959.09;;;26.96;38.04
1401;BME280;46518;48.842;8.926;2022-07-29T11:49:13;96950.63;;;26.98;41.64
1401;BME280;46518;48.842;8.926;2022-07-29T11:52:02;96944.16;;;26.83;44.34
1401;BME280;46518;48.842;8.926;2022-07-29T11:54:39;96950.84;;;26.89;45.45
1401;BME280;46518;48.842;8.926;2022-07-29T11:57:24;96958.53;;;26.67;47.55
1401;BME280;46518;48.842;8.926;2022-07-29T12:00:07;96960.66;;;26.42;47.64
1401;BME280;46518;48.842;8.926;2022-07-29T12:02:41;96955.34;;;26.46;46.06
1401;BME280;46518;48.842;8.926;2022-07-29T12:05:15;96948.72;;;26.24;46.92
1401;BME280;46518;48.842;8.926;2022-07-29T12:08:07;96954.03;;;26.56;46.10
1401;BME280;46518;48.842;8.926;2022-07-29T12:10:41;96955.97;;;26.39;46.74
1401;BME280;46518;48.842;8.926;2022-07-29T12:13:10;96951.25;;;26.17;46.78
1401;BME280;46518;48.842;8.926;2022-07-29T12:15:42;96948.88;;;26.15;47.10
1401;BME280;46518;48.842;8.926;2022-07-29T12:18:15;96958.81;;;26.11;46.61
1401;BME280;46518;48.842;8.926;2022-07-29T12:20:45;96951.88;;;25.94;46.09
1401;BME280;46518;48.842;8.926;2022-07-29T12:23:14;96956.56;;;25.97;46.56
1401;BME280;46518;48.842;8.926;2022-07-29T12:25:44;96959.09;;;26.06;45.55
1401;BME280;46518;48.842;8.926;2022-07-29T12:28:15;96960.81;;;25.98;45.09
1401;BME280;46518;48.842;8.926;2022-07-29T12:30:55;96956.66;;;26.01;43.60
1401;BME280;46518;48.842;8.926;2022-07-29T12:33:24;96960.47;;;26.00;44.41
1401;BME280;46518;48.842;8.926;2022-07-29T12:35:54;96955.78;;;25.97;45.45
1401;BME280;46518;48.842;8.926;2022-07-29T12:38:34;96960.22;;;26.05;46.17
1401;BME280;46518;48.842;8.926;2022-07-29T12:41:02;96955.59;;;26.06;47.98
1401;BME280;46518;48.842;8.926;2022-07-29T12:43:31;96954.00;;;26.20;48.46
1401;BME280;46518;48.842;8.926;2022-07-29T12:46:13;96953.31;;;26.23;48.21
1401;BME280;46518;48.842;8.926;2022-07-29T12:48:42;96960.47;;;26.00;47.68
1401;BME280;46518;48.842;8.926;2022-07-29T12:51:11;96961.53;;;25.95;48.41
1401;BME280;46518;48.842;8.926;2022-07-29T12:53:41;96965.19;;;25.71;50.26
1401;BME280;46518;48.842;8.926;2022-07-29T12:56:15;96964.25;;;25.35;49.77
1401;BME280;46518;48.842;8.926;2022-07-29T12:59:15;96968.41;;;25.05;49.50
1401;BME280;46518;48.842;8.926;2022-07-29T13:01:50;96970.25;;;24.88;49.54
1401;BME280;46518;48.842;8.926;2022-07-29T13:04:26;96969.19;;;24.77;50.81
1401;BME280;46518;48.842;8.926;2022-07-29T13:06:59;96976.28;;;24.69;51.50
1401;BME280;46518;48.842;8.926;2022-07-29T13:09:38;96972.94;;;24.60;50.65
1401;BME280;46518;48.842;8.926;2022-07-29T13:12:08;96974.16;;;24.63;51.09
1401;BME280;46518;48.842;8.926;2022-07-29T13:14:38;96971.59;;;24.66;51.64
1401;BME280;46518;48.842;8.926;2022-07-29T13:17:10;96973.44;;;24.78;51.27
1401;BME280;46518;48.842;8.926;2022-07-29T13:19:40;96982.84;;;24.84;52.01
1401;BME280;46518;48.842;8.926;2022-07-29T13:22:10;96984.34;;;24.69;52.05
1401;BME280;46518;48.842;8.926;2022-07-29T13:24:48;96987.81;;;24.70;51.59
1401;BME280;46518;48.842;8.926;2022-07-29T13:27:19;96984.25;;;24.53;51.42
1401;BME280;46518;48.842;8.926;2022-07-29T13:29:48;96988.97;;;24.44;51.73
1401;BME280;46518;48.842;8.926;2022-07-29T13:32:19;96985.63;;;24.35;53.08
1401;BME280;46518;48.842;8.926;2022-07-29T13:34:54;96982.16;;;24.22;56.54
1401;BME280;46518;48.842;8.926;2022-07-29T13:37:23;96985.16;;;24.33;58.38
1401;BME280;46518;48.842;8.926;2022-07-29T13:39:51;96991.88;;;24.64;57.30
1401;BME280;46518;48.842;8.926;2022-07-29T13:42:21;96983.81;;;25.04;57.40